Time;durP1;ratioP1;P1;durP2;ratioP2;P2;SDS_P1;SDS_P2;PMS_P1;PMS_P2;Temp;Humidity;BMP_temperature;BMP_pressure;BME280_temperature;BME280_humidity;BME280_pressure;Samples;Min_cycle;Max_cycle;Signal;HPM_P1;HPM_P2
2023/05/18 00:01:02;;;;;;;11.27;10.77;;;;;;;;;;5030099;28;20536;-68
2023/05/18 00:03:28;;;;;;;11.85;11.25;;;;;;;;;;5026851;28;20041;-69
2023/05/18 00:05:56;;;;;;;12.00;11.40;;;;;;;;;;5030978;28;20029;-68
2023/05/18 00:08:22;;;;;;;11.63;11.10;;;;;;;;;;5030976;28;20026;-69
2023/05/18 00:10:47;;;;;;;12.23;11.63;;;;;;;;;;5036186;28;20036;-68
2023/05/18 00:13:12;;;;;;;11.32;10.82;;;;;;;;;;5029402;28;20017;-68
2023/05/18 00:15:38;;;;;;;12.27;11.68;;;;;;;;;;5034713;28;20060;-69
2023/05/18 00:18:03;;;;;;;11.50;11.00;;;;;;;;;;5031621;28;20022;-68
2023/05/18 00:20:28;;;;;;;11.43;10.93;;;;;;;;;;5035850;28;20407;-68
2023/05/18 00:22:54;;;;;;;11.52;11.02;;;;;;;;;;5031370;28;20033;-67
2023/05/18 00:25:19;;;;;;;11.50;11.00;;;;;;;;;;5030388;28;20025;-68
2023/05/18 00:27:45;;;;;;;11.20;10.70;;;;;;;;;;5030543;28;20030;-68
2023/05/18 00:30:11;;;;;;;11.60;11.10;;;;;;;;;;5027027;28;20083;-68
2023/05/18 00:32:36;;;;;;;11.68;11.10;;;;;;;;;;5029596;28;20025;-68
2023/05/18 00:35:01;;;;;;;11.45;10.95;;;;;;;;;;5028546;28;20057;-68
2023/05/18 00:37:27;;;;;;;11.50;11.00;;;;;;;;;;5023384;28;20022;-68
2023/05/18 00:39:52;;;;;;;11.45;10.95;;;;;;;;;;5034492;28;20469;-68
2023/05/18 00:42:17;;;;;;;11.18;10.68;;;;;;;;;;5028679;28;20530;-68
2023/05/18 00:44:43;;;;;;;11.90;11.30;;;;;;;;;;5029913;28;20536;-68
2023/05/18 00:47:08;;;;;;;11.10;10.60;;;;;;;;;;5033441;28;20033;-68
2023/05/18 00:49:33;;;;;;;11.90;11.30;;;;;;;;;;5031699;28;20116;-68
2023/05/18 00:51:59;;;;;;;11.50;11.00;;;;;;;;;;5022485;28;20083;-68
2023/05/18 00:54:25;;;;;;;11.27;10.77;;;;;;;;;;5030259;28;20018;-69
2023/05/18 00:56:50;;;;;;;11.30;10.80;;;;;;;;;;5035483;28;20029;-67
2023/05/18 00:59:17;;;;;;;11.40;10.90;;;;;;;;;;5026988;28;20014;-68
2023/05/18 01:01:43;;;;;;;12.18;11.57;;;;;;;;;;5033627;28;20813;-69
2023/05/18 01:04:09;;;;;;;11.38;10.88;;;;;;;;;;5033529;28;20041;-69
2023/05/18 01:06:34;;;;;;;11.68;11.07;;;;;;;;;;5034444;28;20021;-68
2023/05/18 01:09:01;;;;;;;12.13;11.52;;;;;;;;;;5037468;28;20025;-67
2023/05/18 01:11:39;;;;;;;12.52;11.93;;;;;;;;;;5019874;28;20147;-67
2023/05/18 01:14:14;;;;;;;11.82;11.23;;;;;;;;;;5033268;28;20037;-67
2023/05/18 01:17:00;;;;;;;12.50;11.90;;;;;;;;;;5026429;28;20033;-67
2023/05/18 01:19:39;;;;;;;11.75;11.15;;;;;;;;;;5027069;28;20044;-67
2023/05/18 01:22:11;;;;;;;11.88;11.27;;;;;;;;;;5033429;28;20115;-67
2023/05/18 01:24:47;;;;;;;11.63;11.10;;;;;;;;;;5031237;28;20124;-69
2023/05/18 01:27:15;;;;;;;12.00;11.40;;;;;;;;;;5024929;28;20025;-68
2023/05/18 01:29:41;;;;;;;12.10;11.50;;;;;;;;;;5027397;28;20738;-69
2023/05/18 01:32:06;;;;;;;11.48;10.98;;;;;;;;;;5030626;28;20044;-67
2023/05/18 01:34:32;;;;;;;12.20;11.60;;;;;;;;;;5036356;28;20029;-68
2023/05/18 01:36:57;;;;;;;11.82;11.25;;;;;;;;;;5025202;28;20024;-67
2023/05/18 01:39:22;;;;;;;12.43;11.82;;;;;;;;;;5021969;28;20024;-67
2023/05/18 01:41:54;;;;;;;11.63;11.10;;;;;;;;;;5025837;28;20512;-67
2023/05/18 01:44:48;;;;;;;11.68;11.10;;;;;;;;;;5021481;28;20025;-67
2023/05/18 01:47:15;;;;;;;13.02;12.32;;;;;;;;;;5011369;28;20030;-66
2023/05/18 01:49:52;;;;;;;11.80;11.20;;;;;;;;;;5029217;28;20065;-68
2023/05/18 01:52:19;;;;;;;12.07;11.48;;;;;;;;;;5018760;28;20034;-68
2023/05/18 01:54:48;;;;;;;11.88;11.27;;;;;;;;;;5017782;28;20389;-68
2023/05/18 01:57:14;;;;;;;11.38;10.88;;;;;;;;;;5022080;28;20461;-68
2023/05/18 01:59:40;;;;;;;11.70;11.10;;;;;;;;;;5032229;28;20022;-69
2023/05/18 02:02:05;;;;;;;12.10;11.50;;;;;;;;;;5030130;28;20492;-69
2023/05/18 02:04:31;;;;;;;12.13;11.52;;;;;;;;;;5027765;28;20073;-67
2023/05/18 02:06:56;;;;;;;11.38;10.88;;;;;;;;;;5031139;28;20032;-68
2023/05/18 02:09:21;;;;;;;11.45;10.95;;;;;;;;;;5025584;28;20013;-68
2023/05/18 02:11:47;;;;;;;12.65;12.05;;;;;;;;;;5028088;28;20130;-68
2023/05/18 02:14:13;;;;;;;11.98;11.38;;;;;;;;;;5033104;28;20481;-69
2023/05/18 02:16:39;;;;;;;12.43;11.82;;;;;;;;;;5031917;28;20064;-67
2023/05/18 02:19:04;;;;;;;13.10;12.40;;;;;;;;;;5022184;28;20028;-67
2023/05/18 02:21:29;;;;;;;11.98;11.38;;;;;;;;;;5026461;28;20332;-68
2023/05/18 02:23:55;;;;;;;12.25;11.65;;;;;;;;;;5032397;28;20448;-67
2023/05/18 02:26:20;;;;;;;12.00;11.40;;;;;;;;;;5032462;28;20029;-68
2023/05/18 02:28:45;;;;;;;12.70;12.05;;;;;;;;;;5028334;28;20029;-68
2023/05/18 02:31:11;;;;;;;11.40;10.90;;;;;;;;;;5031513;28;20045;-69
2023/05/18 02:33:39;;;;;;;12.60;12.00;;;;;;;;;;5025884;28;20449;-67
2023/05/18 02:36:06;;;;;;;11.65;11.10;;;;;;;;;;5028824;28;20025;-67
2023/05/18 02:38:31;;;;;;;11.60;11.07;;;;;;;;;;5028623;28;20021;-68
2023/05/18 02:40:56;;;;;;;11.88;11.27;;;;;;;;;;5030061;28;20022;-67
2023/05/18 02:43:22;;;;;;;11.95;11.35;;;;;;;;;;5032446;28;20025;-68
2023/05/18 02:45:47;;;;;;;11.88;11.27;;;;;;;;;;5027660;28;20455;-69
2023/05/18 02:48:12;;;;;;;12.13;11.52;;;;;;;;;;5027471;28;20560;-68
2023/05/18 02:50:38;;;;;;;11.80;11.20;;;;;;;;;;5032371;28;20095;-68
2023/05/18 02:53:03;;;;;;;11.73;11.13;;;;;;;;;;5029888;28;20113;-68
2023/05/18 02:55:29;;;;;;;12.13;11.52;;;;;;;;;;5029994;28;20036;-67
2023/05/18 02:57:56;;;;;;;11.85;11.25;;;;;;;;;;5018275;28;20057;-67
2023/05/18 03:00:22;;;;;;;11.48;10.98;;;;;;;;;;5024944;28;20083;-68
2023/05/18 03:02:49;;;;;;;11.48;10.98;;;;;;;;;;5026718;28;20073;-67
2023/05/18 03:05:15;;;;;;;12.50;11.90;;;;;;;;;;5031211;28;20090;-67
2023/05/18 03:07:44;;;;;;;12.05;11.45;;;;;;;;;;5028277;28;20025;-67
2023/05/18 03:10:10;;;;;;;10.80;10.30;;;;;;;;;;5029585;28;20025;-68
2023/05/18 03:12:35;;;;;;;12.25;11.65;;;;;;;;;;5026664;28;20507;-68
2023/05/18 03:15:00;;;;;;;11.68;11.18;;;;;;;;;;5032229;28;20074;-68
2023/05/18 03:17:26;;;;;;;11.88;11.30;;;;;;;;;;5058574;28;20053;-68
2023/05/18 03:19:51;;;;;;;12.35;11.75;;;;;;;;;;5027449;28;20095;-69
2023/05/18 03:22:16;;;;;;;11.70;11.20;;;;;;;;;;5027326;28;20030;-69
2023/05/18 03:24:42;;;;;;;12.60;12.00;;;;;;;;;;5043782;28;20028;-69
2023/05/18 03:27:07;;;;;;;11.73;11.20;;;;;;;;;;5026453;28;20033;-69
2023/05/18 03:29:35;;;;;;;11.75;11.23;;;;;;;;;;5027595;28;20017;-69
2023/05/18 03:32:00;;;;;;;11.05;10.55;;;;;;;;;;5028850;28;20029;-68
2023/05/18 03:34:33;;;;;;;12.32;11.73;;;;;;;;;;5025747;28;20032;-69
2023/05/18 03:36:59;;;;;;;11.65;11.15;;;;;;;;;;5029546;28;20157;-69
2023/05/18 03:39:24;;;;;;;11.57;11.07;;;;;;;;;;5033152;28;20104;-69
2023/05/18 03:41:50;;;;;;;11.45;10.95;;;;;;;;;;5028353;28;20052;-69
2023/05/18 03:44:15;;;;;;;11.50;11.00;;;;;;;;;;5029495;28;20420;-68
2023/05/18 03:46:40;;;;;;;11.98;11.38;;;;;;;;;;5029514;28;20033;-68
2023/05/18 03:49:06;;;;;;;12.20;11.60;;;;;;;;;;5028766;28;20025;-67
2023/05/18 03:51:32;;;;;;;11.93;11.43;;;;;;;;;;5030792;28;20029;-68
2023/05/18 03:53:57;;;;;;;11.88;11.38;;;;;;;;;;5028527;28;20013;-68
2023/05/18 03:56:23;;;;;;;11.85;11.35;;;;;;;;;;5030384;28;20021;-67
2023/05/18 03:58:50;;;;;;;11.98;11.48;;;;;;;;;;5019142;28;20424;-68
2023/05/18 04:01:17;;;;;;;11.88;11.38;;;;;;;;;;5026352;28;20052;-68
2023/05/18 04:03:43;;;;;;;12.13;11.63;;;;;;;;;;5029176;28;20068;-68
2023/05/18 04:06:09;;;;;;;12.02;11.52;;;;;;;;;;5029678;28;20052;-69
2023/05/18 04:08:35;;;;;;;12.13;11.63;;;;;;;;;;5027235;28;20041;-68
2023/05/18 04:11:01;;;;;;;12.18;11.68;;;;;;;;;;5026783;28;20041;-68
2023/05/18 04:13:26;;;;;;;12.07;11.57;;;;;;;;;;5025417;28;20036;-69
2023/05/18 04:15:51;;;;;;;11.73;11.23;;;;;;;;;;5023157;28;20052;-69
2023/05/18 04:18:17;;;;;;;12.10;11.60;;;;;;;;;;5027848;28;20277;-68
2023/05/18 04:20:44;;;;;;;12.13;11.63;;;;;;;;;;5028096;28;20835;-69
2023/05/18 04:23:10;;;;;;;12.52;11.93;;;;;;;;;;5025026;28;20033;-68
2023/05/18 04:25:38;;;;;;;12.50;11.90;;;;;;;;;;5030549;28;20021;-69
2023/05/18 04:28:03;;;;;;;12.02;11.52;;;;;;;;;;5026107;28;20029;-69
2023/05/18 04:30:29;;;;;;;11.98;11.48;;;;;;;;;;5028220;28;20048;-69
2023/05/18 04:32:57;;;;;;;12.10;11.60;;;;;;;;;;5025749;28;20056;-69
2023/05/18 04:35:26;;;;;;;12.20;11.70;;;;;;;;;;5030142;28;20110;-69
2023/05/18 04:37:51;;;;;;;12.32;11.82;;;;;;;;;;5024196;28;20022;-69
2023/05/18 04:40:16;;;;;;;12.55;11.95;;;;;;;;;;5026469;28;20021;-68
2023/05/18 04:42:46;;;;;;;11.77;11.27;;;;;;;;;;5023041;28;20472;-67
2023/05/18 04:45:19;;;;;;;12.13;11.63;;;;;;;;;;5026131;28;20013;-68
2023/05/18 04:47:45;;;;;;;12.88;12.27;;;;;;;;;;5024703;28;20389;-67
2023/05/18 04:50:12;;;;;;;12.70;12.10;;;;;;;;;;5027409;28;20040;-68
2023/05/18 04:52:40;;;;;;;12.50;11.90;;;;;;;;;;5027868;28;20038;-68
2023/05/18 04:55:09;;;;;;;12.32;11.80;;;;;;;;;;5030123;28;20408;-68
2023/05/18 04:57:34;;;;;;;12.40;11.85;;;;;;;;;;5026773;28;20022;-68
2023/05/18 05:00:01;;;;;;;12.88;12.27;;;;;;;;;;5027656;28;20074;-66
2023/05/18 05:02:27;;;;;;;12.70;12.10;;;;;;;;;;5022168;28;20612;-65
2023/05/18 05:04:53;;;;;;;12.50;11.90;;;;;;;;;;5023823;28;20026;-66
2023/05/18 05:07:20;;;;;;;12.20;11.70;;;;;;;;;;5026553;28;20056;-67
2023/05/18 05:09:45;;;;;;;12.45;11.93;;;;;;;;;;5028156;28;20028;-66
2023/05/18 05:12:10;;;;;;;12.23;11.73;;;;;;;;;;5030921;28;20033;-65
2023/05/18 05:14:35;;;;;;;13.17;12.57;;;;;;;;;;5026688;28;20357;-67
2023/05/18 05:17:01;;;;;;;12.57;11.97;;;;;;;;;;5025698;28;20359;-65
2023/05/18 05:19:26;;;;;;;11.90;11.40;;;;;;;;;;5027404;28;20270;-65
2023/05/18 05:21:51;;;;;;;12.25;11.75;;;;;;;;;;5029098;28;20094;-67
2023/05/18 05:24:17;;;;;;;11.90;11.40;;;;;;;;;;5028388;28;20087;-67
2023/05/18 05:26:42;;;;;;;12.35;11.85;;;;;;;;;;5021479;28;20464;-66
2023/05/18 05:29:07;;;;;;;12.20;11.70;;;;;;;;;;5026864;28;20030;-66
2023/05/18 05:31:33;;;;;;;12.07;11.57;;;;;;;;;;5028908;28;20641;-66
2023/05/18 05:33:58;;;;;;;12.23;11.73;;;;;;;;;;5030690;28;20642;-65
2023/05/18 05:36:23;;;;;;;11.77;11.27;;;;;;;;;;5030160;28;20013;-65
2023/05/18 05:38:49;;;;;;;12.17;11.67;;;;;;;;;;5031053;28;20034;-65
2023/05/18 05:41:14;;;;;;;12.03;11.53;;;;;;;;;;5026052;28;20334;-67
2023/05/18 05:43:39;;;;;;;12.80;12.20;;;;;;;;;;5033211;28;20333;-66
2023/05/18 05:46:05;;;;;;;12.10;11.60;;;;;;;;;;5031244;28;20749;-66
2023/05/18 05:48:30;;;;;;;12.77;12.17;;;;;;;;;;5029025;28;20080;-66
2023/05/18 05:50:55;;;;;;;12.30;11.80;;;;;;;;;;5026570;28;20071;-64
2023/05/18 05:53:22;;;;;;;12.50;11.90;;;;;;;;;;5026572;28;20333;-65
2023/05/18 05:55:47;;;;;;;13.52;12.93;;;;;;;;;;5031508;28;20397;-63
2023/05/18 05:58:12;;;;;;;12.70;12.10;;;;;;;;;;5027816;28;20108;-67
2023/05/18 06:00:38;;;;;;;12.93;12.33;;;;;;;;;;5033383;28;20017;-68
2023/05/18 06:03:03;;;;;;;12.55;11.95;;;;;;;;;;5031639;28;20375;-68
2023/05/18 06:05:28;;;;;;;13.20;12.60;;;;;;;;;;5031825;28;20045;-67
2023/05/18 06:07:57;;;;;;;12.83;12.23;;;;;;;;;;5032986;28;20014;-67
2023/05/18 06:10:22;;;;;;;12.00;11.50;;;;;;;;;;5031507;28;20014;-67
2023/05/18 06:12:48;;;;;;;12.55;11.95;;;;;;;;;;5033183;28;20025;-66
2023/05/18 06:15:14;;;;;;;12.30;11.75;;;;;;;;;;5032422;28;20037;-67
2023/05/18 06:17:42;;;;;;;12.63;12.02;;;;;;;;;;5033317;28;20018;-67
2023/05/18 06:20:08;;;;;;;13.50;12.90;;;;;;;;;;5031111;28;20100;-67
2023/05/18 06:22:33;;;;;;;12.68;12.07;;;;;;;;;;5037507;28;20052;-67
2023/05/18 06:24:59;;;;;;;13.15;12.55;;;;;;;;;;5037184;28;20077;-67
2023/05/18 06:27:24;;;;;;;13.00;12.40;;;;;;;;;;5031217;28;20123;-67
2023/05/18 06:29:51;;;;;;;12.57;11.98;;;;;;;;;;5032890;28;20033;-67
2023/05/18 06:32:17;;;;;;;12.90;12.30;;;;;;;;;;5032261;28;20048;-66
2023/05/18 06:34:44;;;;;;;13.10;12.50;;;;;;;;;;5032442;28;20052;-67
2023/05/18 06:37:10;;;;;;;12.35;11.80;;;;;;;;;;5028891;28;20017;-66
2023/05/18 06:39:35;;;;;;;12.23;11.73;;;;;;;;;;5028239;28;20427;-67
2023/05/18 06:42:01;;;;;;;12.45;11.88;;;;;;;;;;5032378;28;20049;-67
2023/05/18 06:44:26;;;;;;;12.67;12.07;;;;;;;;;;5032895;28;20021;-67
2023/05/18 06:46:51;;;;;;;12.20;11.70;;;;;;;;;;5031709;28;20294;-67
2023/05/18 06:49:16;;;;;;;12.80;12.20;;;;;;;;;;5032436;28;20025;-67
2023/05/18 06:51:42;;;;;;;12.63;12.03;;;;;;;;;;5019812;28;20026;-67
2023/05/18 06:54:08;;;;;;;12.25;11.75;;;;;;;;;;5032163;28;20247;-66
2023/05/18 06:56:33;;;;;;;12.35;11.85;;;;;;;;;;5032144;28;20422;-67
2023/05/18 06:58:58;;;;;;;12.23;11.73;;;;;;;;;;5038910;28;20484;-66
2023/05/18 07:01:24;;;;;;;12.37;11.80;;;;;;;;;;5034065;28;20187;-65
2023/05/18 07:03:49;;;;;;;12.60;12.00;;;;;;;;;;5035373;28;20463;-67
2023/05/18 07:06:14;;;;;;;12.50;11.90;;;;;;;;;;5038160;28;20802;-67
2023/05/18 07:08:40;;;;;;;12.35;11.85;;;;;;;;;;5032221;28;20254;-67
2023/05/18 07:11:05;;;;;;;12.80;12.20;;;;;;;;;;5032078;28;20028;-66
2023/05/18 07:13:31;;;;;;;12.50;11.90;;;;;;;;;;5034549;28;20266;-67
2023/05/18 07:15:56;;;;;;;12.48;11.88;;;;;;;;;;5037463;28;20084;-67
2023/05/18 07:18:22;;;;;;;12.57;11.98;;;;;;;;;;5034866;28;20688;-66
2023/05/18 07:20:47;;;;;;;12.70;12.10;;;;;;;;;;5039038;28;20020;-66
2023/05/18 07:23:12;;;;;;;12.57;11.98;;;;;;;;;;5029285;28;20262;-67
2023/05/18 07:25:38;;;;;;;12.70;12.10;;;;;;;;;;5031451;28;20021;-67
2023/05/18 07:28:03;;;;;;;12.52;11.93;;;;;;;;;;5031633;28;20293;-67
2023/05/18 07:30:28;;;;;;;12.50;11.90;;;;;;;;;;5031694;28;20029;-67
2023/05/18 07:32:55;;;;;;;12.30;11.80;;;;;;;;;;5035196;28;20275;-67
2023/05/18 07:35:20;;;;;;;12.40;11.82;;;;;;;;;;5031662;28;20022;-67
2023/05/18 07:37:46;;;;;;;12.82;12.23;;;;;;;;;;5030877;28;20029;-67
2023/05/18 07:40:11;;;;;;;12.23;11.73;;;;;;;;;;5035231;28;20029;-67
2023/05/18 07:42:40;;;;;;;12.90;12.30;;;;;;;;;;5031350;28;20013;-67
2023/05/18 07:45:05;;;;;;;13.15;12.55;;;;;;;;;;5027860;28;20525;-66
2023/05/18 07:47:31;;;;;;;14.02;13.35;;;;;;;;;;5023813;28;20075;-66
2023/05/18 07:49:56;;;;;;;13.30;12.70;;;;;;;;;;5031630;28;20484;-67
2023/05/18 07:52:21;;;;;;;12.80;12.20;;;;;;;;;;5031290;28;20009;-66
2023/05/18 07:54:47;;;;;;;12.97;12.37;;;;;;;;;;5031313;28;20028;-66
2023/05/18 07:57:12;;;;;;;13.05;12.45;;;;;;;;;;5031421;28;20251;-66
2023/05/18 07:59:38;;;;;;;14.10;13.40;;;;;;;;;;5032688;28;20171;-66
2023/05/18 08:02:04;;;;;;;12.95;12.35;;;;;;;;;;5029579;28;20032;-67
2023/05/18 08:04:29;;;;;;;12.30;11.70;;;;;;;;;;5029916;28;20132;-66
2023/05/18 08:06:59;;;;;;;12.50;11.90;;;;;;;;;;5031668;28;20121;-66
2023/05/18 08:09:24;;;;;;;12.27;11.68;;;;;;;;;;5031868;28;20504;-66
2023/05/18 08:11:50;;;;;;;12.98;12.38;;;;;;;;;;5034691;28;20033;-66
2023/05/18 08:14:16;;;;;;;13.50;12.88;;;;;;;;;;5029418;28;20075;-66
2023/05/18 08:16:41;;;;;;;14.05;13.35;;;;;;;;;;5030755;28;20037;-67
2023/05/18 08:19:06;;;;;;;12.82;12.23;;;;;;;;;;5031384;28;20097;-67
2023/05/18 08:21:32;;;;;;;13.55;12.85;;;;;;;;;;5035418;28;20025;-66
2023/05/18 08:23:57;;;;;;;12.57;11.98;;;;;;;;;;5031251;28;20040;-66
2023/05/18 08:26:23;;;;;;;12.30;11.70;;;;;;;;;;5031369;28;20025;-66
2023/05/18 08:28:48;;;;;;;12.70;12.10;;;;;;;;;;5031032;28;20013;-67
2023/05/18 08:31:14;;;;;;;13.02;12.43;;;;;;;;;;5026988;28;20028;-68
2023/05/18 08:33:40;;;;;;;12.85;12.25;;;;;;;;;;5023042;28;20083;-67
2023/05/18 08:36:06;;;;;;;12.48;11.88;;;;;;;;;;5030947;28;20092;-67
2023/05/18 08:38:32;;;;;;;12.38;11.77;;;;;;;;;;5031043;28;20013;-67
2023/05/18 08:41:21;;;;;;;12.50;11.90;;;;;;;;;;5030756;28;20020;-67
2023/05/18 08:43:48;;;;;;;12.93;12.32;;;;;;;;;;5032877;28;20037;-67
2023/05/18 08:46:20;;;;;;;12.63;12.02;;;;;;;;;;5032735;28;20464;-67
2023/05/18 08:48:46;;;;;;;13.52;12.82;;;;;;;;;;5024338;28;20026;-67
2023/05/18 08:51:13;;;;;;;13.93;13.23;;;;;;;;;;5030713;28;20024;-67
2023/05/18 08:53:39;;;;;;;13.57;12.88;;;;;;;;;;5029902;28;20021;-66
2023/05/18 08:56:04;;;;;;;12.55;11.95;;;;;;;;;;5034138;28;20021;-66
2023/05/18 08:58:42;;;;;;;12.90;12.30;;;;;;;;;;5032865;28;20025;-66
2023/05/18 09:01:08;;;;;;;12.27;11.68;;;;;;;;;;5028505;28;20059;-66
2023/05/18 09:03:33;;;;;;;12.35;11.75;;;;;;;;;;5028874;28;20512;-66
2023/05/18 09:05:59;;;;;;;12.85;12.25;;;;;;;;;;5030095;28;20028;-68
2023/05/18 09:08:25;;;;;;;12.25;11.65;;;;;;;;;;5028237;28;20021;-66
2023/05/18 09:10:51;;;;;;;13.18;12.50;;;;;;;;;;5030210;28;20021;-66
2023/05/18 09:13:18;;;;;;;12.50;11.90;;;;;;;;;;5030013;28;20013;-66
2023/05/18 09:15:44;;;;;;;12.45;11.85;;;;;;;;;;5030472;28;20041;-68
2023/05/18 09:18:09;;;;;;;12.27;11.68;;;;;;;;;;5030335;28;20052;-66
2023/05/18 09:20:35;;;;;;;12.70;12.10;;;;;;;;;;5030431;28;20034;-65
2023/05/18 09:23:00;;;;;;;12.52;11.93;;;;;;;;;;5031797;28;20109;-67
2023/05/18 09:25:26;;;;;;;12.13;11.55;;;;;;;;;;5030168;28;20507;-67
2023/05/18 09:27:52;;;;;;;12.90;12.30;;;;;;;;;;5033640;28;20048;-66
2023/05/18 09:30:17;;;;;;;11.80;11.30;;;;;;;;;;5032898;28;20025;-67
2023/05/18 09:32:45;;;;;;;12.05;11.45;;;;;;;;;;5030260;28;20455;-67
2023/05/18 09:35:11;;;;;;;12.13;11.52;;;;;;;;;;5035381;28;20018;-67
2023/05/18 09:37:40;;;;;;;12.70;12.10;;;;;;;;;;5029041;28;20013;-66
2023/05/18 09:40:07;;;;;;;12.40;11.80;;;;;;;;;;5027207;28;20053;-66
2023/05/18 09:42:36;;;;;;;12.32;11.73;;;;;;;;;;5029940;28;20025;-67
2023/05/18 09:45:02;;;;;;;13.05;12.45;;;;;;;;;;5029811;28;20029;-66
2023/05/18 09:47:27;;;;;;;12.50;11.90;;;;;;;;;;5029270;28;20017;-66
2023/05/18 09:49:54;;;;;;;12.85;12.25;;;;;;;;;;5030389;28;20504;-67
2023/05/18 09:52:20;;;;;;;13.35;12.65;;;;;;;;;;5029022;28;20026;-67
2023/05/18 09:54:51;;;;;;;12.20;11.60;;;;;;;;;;5029978;28;20033;-67
2023/05/18 09:57:19;;;;;;;12.60;12.00;;;;;;;;;;5021514;28;20006;-66
2023/05/18 09:59:49;;;;;;;12.32;11.73;;;;;;;;;;5029474;28;20017;-67
2023/05/18 10:02:18;;;;;;;11.95;11.35;;;;;;;;;;5027685;28;20076;-68
2023/05/18 10:04:43;;;;;;;12.95;12.32;;;;;;;;;;5030051;28;20136;-68
2023/05/18 10:07:12;;;;;;;11.77;11.27;;;;;;;;;;5031415;28;20172;-66
2023/05/18 10:09:44;;;;;;;13.35;12.65;;;;;;;;;;5029695;28;20031;-66
2023/05/18 10:12:13;;;;;;;12.65;12.05;;;;;;;;;;5026736;28;20022;-67
2023/05/18 10:14:40;;;;;;;12.75;12.15;;;;;;;;;;5033343;28;20052;-67
2023/05/18 10:17:05;;;;;;;12.55;11.95;;;;;;;;;;5034815;28;20434;-67
2023/05/18 10:19:33;;;;;;;12.90;12.30;;;;;;;;;;5037242;28;20029;-66
2023/05/18 10:22:00;;;;;;;12.60;12.00;;;;;;;;;;5033279;28;20060;-66
2023/05/18 10:24:25;;;;;;;13.52;12.82;;;;;;;;;;5033055;28;20430;-67
2023/05/18 10:26:51;;;;;;;12.50;11.90;;;;;;;;;;5033047;28;20113;-67
2023/05/18 10:29:17;;;;;;;13.02;12.43;;;;;;;;;;5032965;28;20021;-66
2023/05/18 10:31:44;;;;;;;12.60;12.00;;;;;;;;;;5029906;28;20068;-66
2023/05/18 10:34:10;;;;;;;12.80;12.20;;;;;;;;;;5033014;28;20029;-67
2023/05/18 10:36:36;;;;;;;12.80;12.20;;;;;;;;;;5032935;28;20009;-67
2023/05/18 10:39:02;;;;;;;13.60;12.90;;;;;;;;;;5033011;28;20323;-67
2023/05/18 10:41:29;;;;;;;13.13;12.52;;;;;;;;;;5033137;28;20116;-67
2023/05/18 10:44:02;;;;;;;12.45;11.85;;;;;;;;;;5030305;28;20017;-68
2023/05/18 10:46:28;;;;;;;12.50;11.90;;;;;;;;;;5026171;28;20573;-67
2023/05/18 10:48:54;;;;;;;13.13;12.50;;;;;;;;;;5019241;28;20036;-66
2023/05/18 10:51:20;;;;;;;13.95;13.25;;;;;;;;;;5032544;28;20024;-66
2023/05/18 10:53:46;;;;;;;13.45;12.75;;;;;;;;;;5031470;28;20014;-66
2023/05/18 10:56:12;;;;;;;13.05;12.45;;;;;;;;;;5032605;28;20017;-66
2023/05/18 10:58:37;;;;;;;12.32;11.73;;;;;;;;;;5034939;28;20432;-66
2023/05/18 11:01:05;;;;;;;12.73;12.13;;;;;;;;;;5029742;28;20037;-67
2023/05/18 11:03:31;;;;;;;13.43;12.73;;;;;;;;;;5030172;28;20072;-67
2023/05/18 11:06:02;;;;;;;13.48;12.77;;;;;;;;;;5031909;28;20033;-67
2023/05/18 11:08:28;;;;;;;12.82;12.23;;;;;;;;;;5035274;28;20479;-66
2023/05/18 11:11:01;;;;;;;12.60;12.00;;;;;;;;;;5032836;28;20029;-66
2023/05/18 11:13:27;;;;;;;12.10;11.50;;;;;;;;;;5034183;28;20052;-68
2023/05/18 11:15:53;;;;;;;13.02;12.43;;;;;;;;;;5030792;28;20095;-67
2023/05/18 11:18:18;;;;;;;12.45;11.85;;;;;;;;;;5032082;28;20072;-67
2023/05/18 11:20:44;;;;;;;12.95;12.35;;;;;;;;;;5031870;28;20439;-67
2023/05/18 11:23:10;;;;;;;12.73;12.13;;;;;;;;;;5033322;28;20104;-67
2023/05/18 11:25:36;;;;;;;12.88;12.27;;;;;;;;;;5032942;28;20048;-67
2023/05/18 11:28:04;;;;;;;13.20;12.57;;;;;;;;;;5032666;28;20109;-67
2023/05/18 11:30:32;;;;;;;12.82;12.23;;;;;;;;;;5031417;28;20099;-67
2023/05/18 11:33:08;;;;;;;12.45;11.85;;;;;;;;;;5031266;28;20025;-67
2023/05/18 11:35:39;;;;;;;12.38;11.77;;;;;;;;;;5028813;28;20024;-67
2023/05/18 11:38:05;;;;;;;12.18;11.57;;;;;;;;;;5031985;28;20028;-67
2023/05/18 11:40:45;;;;;;;12.25;11.65;;;;;;;;;;5031606;28;20014;-67
2023/05/18 11:43:22;;;;;;;12.52;11.93;;;;;;;;;;5027275;28;20030;-67
2023/05/18 11:45:55;;;;;;;12.80;12.20;;;;;;;;;;5027742;28;20028;-68
2023/05/18 11:48:21;;;;;;;12.25;11.65;;;;;;;;;;5032279;28;20025;-67
2023/05/18 11:50:46;;;;;;;12.32;11.73;;;;;;;;;;5031420;28;20021;-67
2023/05/18 11:53:18;;;;;;;12.40;11.80;;;;;;;;;;5030663;28;20431;-67
2023/05/18 11:55:45;;;;;;;12.57;11.98;;;;;;;;;;5031065;28;20021;-67
2023/05/18 11:58:13;;;;;;;12.30;11.70;;;;;;;;;;5035038;28;20017;-67
2023/05/18 12:00:39;;;;;;;13.07;12.48;;;;;;;;;;5026175;28;20381;-68
2023/05/18 12:03:06;;;;;;;12.15;11.55;;;;;;;;;;5025608;28;20077;-67
2023/05/18 12:05:33;;;;;;;12.93;12.32;;;;;;;;;;5031035;28;20029;-67
2023/05/18 12:07:58;;;;;;;12.18;11.57;;;;;;;;;;5031551;28;20041;-67
2023/05/18 12:10:24;;;;;;;12.23;11.63;;;;;;;;;;5031739;28;20389;-68
2023/05/18 12:12:50;;;;;;;12.48;11.88;;;;;;;;;;5031366;28;20393;-67
2023/05/18 12:15:20;;;;;;;12.13;11.52;;;;;;;;;;5030225;28;20020;-68
2023/05/18 12:17:46;;;;;;;11.70;11.20;;;;;;;;;;5030798;28;20017;-68
2023/05/18 12:20:13;;;;;;;12.38;11.77;;;;;;;;;;5031200;28;20018;-68
2023/05/18 12:22:38;;;;;;;12.32;11.73;;;;;;;;;;5031502;28;20025;-67
2023/05/18 12:25:05;;;;;;;12.50;11.90;;;;;;;;;;5031457;28;20430;-67
2023/05/18 12:27:36;;;;;;;12.93;12.32;;;;;;;;;;5031106;28;20013;-67
2023/05/18 12:30:01;;;;;;;12.57;11.98;;;;;;;;;;5029641;28;20408;-68
2023/05/18 12:32:29;;;;;;;12.10;11.50;;;;;;;;;;5033707;28;20022;-67
2023/05/18 12:34:54;;;;;;;12.73;12.13;;;;;;;;;;5030443;28;20051;-68
2023/05/18 12:37:23;;;;;;;12.70;12.10;;;;;;;;;;5028592;28;20045;-66
2023/05/18 12:39:52;;;;;;;12.60;12.00;;;;;;;;;;5030910;28;20052;-67
2023/05/18 12:42:18;;;;;;;12.18;11.57;;;;;;;;;;5028264;28;20397;-66
2023/05/18 12:44:43;;;;;;;12.70;12.10;;;;;;;;;;5030250;28;20030;-68
2023/05/18 12:47:09;;;;;;;13.00;12.40;;;;;;;;;;5029209;28;20246;-65
2023/05/18 12:49:35;;;;;;;13.55;12.85;;;;;;;;;;5020988;28;20036;-65
2023/05/18 12:52:07;;;;;;;12.93;12.32;;;;;;;;;;5025080;28;20040;-68
2023/05/18 12:54:32;;;;;;;13.13;12.52;;;;;;;;;;5024967;28;20390;-73
2023/05/18 12:57:00;;;;;;;13.98;13.27;;;;;;;;;;5019921;28;20028;-73
2023/05/18 12:59:26;;;;;;;12.60;12.00;;;;;;;;;;5024678;28;20338;-73
2023/05/18 13:01:52;;;;;;;12.20;11.60;;;;;;;;;;5021835;28;20030;-73
2023/05/18 13:04:18;;;;;;;11.85;11.35;;;;;;;;;;5023568;28;20044;-73
2023/05/18 13:06:43;;;;;;;13.25;12.57;;;;;;;;;;5042605;28;20610;-73
2023/05/18 13:09:12;;;;;;;12.73;12.13;;;;;;;;;;5021664;28;20107;-73
2023/05/18 13:11:37;;;;;;;13.15;12.55;;;;;;;;;;5019632;28;20029;-73
2023/05/18 13:14:06;;;;;;;12.25;11.65;;;;;;;;;;5024579;28;20077;-73
2023/05/18 13:16:33;;;;;;;12.68;12.07;;;;;;;;;;5032343;28;20024;-74
2023/05/18 13:18:59;;;;;;;12.50;11.90;;;;;;;;;;5029621;28;20037;-73
2023/05/18 13:21:24;;;;;;;12.38;11.77;;;;;;;;;;5022426;28;20083;-74
2023/05/18 13:23:50;;;;;;;13.93;13.23;;;;;;;;;;5021553;28;20033;-74
2023/05/18 13:26:17;;;;;;;12.65;12.05;;;;;;;;;;5019948;28;20097;-74
2023/05/18 13:28:43;;;;;;;12.90;12.30;;;;;;;;;;5018893;28;20076;-73
2023/05/18 13:31:08;;;;;;;12.50;11.90;;;;;;;;;;5019751;28;20022;-71
2023/05/18 13:33:34;;;;;;;12.15;11.55;;;;;;;;;;5024177;28;20026;-69
2023/05/18 13:35:59;;;;;;;12.30;11.70;;;;;;;;;;5026180;28;20036;-69
2023/05/18 13:38:25;;;;;;;12.63;12.02;;;;;;;;;;5028117;28;20029;-70
2023/05/18 13:40:50;;;;;;;13.07;12.48;;;;;;;;;;5029661;28;20031;-70
2023/05/18 13:43:15;;;;;;;13.35;12.68;;;;;;;;;;5022573;28;20543;-69
2023/05/18 13:45:42;;;;;;;12.43;11.82;;;;;;;;;;5020286;28;20029;-70
2023/05/18 13:48:08;;;;;;;12.27;11.68;;;;;;;;;;5026988;28;20521;-69
2023/05/18 13:50:33;;;;;;;12.52;11.93;;;;;;;;;;5026774;28;20032;-70
2023/05/18 13:52:59;;;;;;;12.30;11.70;;;;;;;;;;5030997;28;20029;-68
2023/05/18 13:55:25;;;;;;;13.15;12.55;;;;;;;;;;5027687;28;20049;-71
2023/05/18 13:57:50;;;;;;;12.63;12.02;;;;;;;;;;5025805;28;20046;-70
2023/05/18 14:00:16;;;;;;;12.90;12.30;;;;;;;;;;5031915;28;20640;-70
2023/05/18 14:02:44;;;;;;;12.60;12.00;;;;;;;;;;5021662;28;20054;-70
2023/05/18 14:05:10;;;;;;;12.45;11.85;;;;;;;;;;5028430;28;20430;-70
2023/05/18 14:07:36;;;;;;;13.15;12.55;;;;;;;;;;5031392;28;20219;-70
2023/05/18 14:10:02;;;;;;;13.32;12.63;;;;;;;;;;5028679;28;20067;-69
2023/05/18 14:12:27;;;;;;;13.23;12.63;;;;;;;;;;5028282;28;20056;-68